createdAt,value
2017-06-19T00:03:13.908Z,16.7
2017-06-19T00:13:28.616Z,16.4
2017-06-19T00:23:43.411Z,16.1
2017-06-19T00:33:58.933Z,16.4
2017-06-19T00:44:13.618Z,16.3
2017-06-19T00:54:29.293Z,16.2
2017-06-19T01:04:43.343Z,15.9
2017-06-19T01:14:57.423Z,15.8
2017-06-19T01:25:11.866Z,15.8
2017-06-19T01:35:25.683Z,15.6
2017-06-19T01:45:40.049Z,15.8
2017-06-19T01:55:54.846Z,15.7
2017-06-19T02:06:08.909Z,15.6
2017-06-19T02:16:23.713Z,15.9
2017-06-19T02:26:39.258Z,15.8
2017-06-19T02:36:53.299Z,15.6
2017-06-19T02:47:08.127Z,15.1
2017-06-19T02:57:23.627Z,15.5
2017-06-19T03:07:38.544Z,15.7
2017-06-19T03:17:52.490Z,15.7
2017-06-19T03:28:08.150Z,15.6
2017-06-19T03:38:22.872Z,15.1
2017-06-19T03:48:36.876Z,15.2
2017-06-19T03:58:51.156Z,15.1
2017-06-19T04:09:06.263Z,15.3
2017-06-19T04:19:20.372Z,15.6
2017-06-19T04:29:34.162Z,15.6
2017-06-19T04:39:49.915Z,16.3
2017-06-19T04:50:04.436Z,16.2
2017-06-19T05:00:20.183Z,16.5
2017-06-19T05:10:35.247Z,16.9
2017-06-19T05:20:49.660Z,17.2
2017-06-19T05:31:04.650Z,17.7
2017-06-19T05:41:19.938Z,18.2
2017-06-19T05:51:35.668Z,18.4
2017-06-19T06:01:50.512Z,19.4
2017-06-19T06:12:05.334Z,21.5
2017-06-19T06:22:20.809Z,23.7
2017-06-19T06:32:35.011Z,23.5
2017-06-19T06:42:50.321Z,25.9
2017-06-19T06:53:05.263Z,26
2017-06-19T07:03:19.980Z,27.1
2017-06-19T07:13:35.712Z,28
2017-06-19T07:23:49.754Z,27.3
2017-06-19T07:34:05.174Z,26.4
2017-06-19T07:44:20.814Z,26.7
2017-06-19T07:54:35.030Z,28.5
2017-06-19T08:04:49.225Z,27.3
2017-06-19T08:15:04.593Z,29.7
2017-06-19T08:25:18.762Z,29.4
2017-06-19T08:35:33.984Z,29.6
2017-06-19T08:45:49.985Z,27.3
2017-06-19T08:56:05.016Z,29.9
2017-06-19T09:06:20.013Z,29.7
2017-06-19T09:16:34.703Z,31
2017-06-19T09:26:50.130Z,30.5
2017-06-19T09:37:06.133Z,30.7
2017-06-19T09:47:21.006Z,30.9
2017-06-19T09:57:36.046Z,29.4
2017-06-19T10:07:51.857Z,30.4
2017-06-19T10:18:06.094Z,29.5
2017-06-19T10:28:20.969Z,30.3
2017-06-19T10:38:35.222Z,30.8
2017-06-19T10:48:49.620Z,30.6
2017-06-19T10:59:05.051Z,30.8
2017-06-19T11:09:20.831Z,31.4
2017-06-19T11:19:36.179Z,32
2017-06-19T11:29:52.125Z,30.8
2017-06-19T11:40:06.183Z,31.1
2017-06-19T11:50:20.501Z,31.9
2017-06-19T12:00:34.960Z,31.9
2017-06-19T12:10:50.335Z,31.2
2017-06-19T12:21:04.465Z,31.5
2017-06-19T12:31:20.118Z,32.1
2017-06-19T12:41:35.857Z,33.1
2017-06-19T12:51:49.918Z,33.8
2017-06-19T13:02:04.970Z,31.7
2017-06-19T13:12:19.950Z,31.9
2017-06-19T13:22:35.913Z,32.6
2017-06-19T13:32:51.087Z,32.5
2017-06-19T13:43:06.323Z,31.7
2017-06-19T13:53:20.895Z,32.3
2017-06-19T14:03:36.463Z,32.4
2017-06-19T14:13:50.727Z,32.7
2017-06-19T14:24:05.956Z,33
2017-06-19T14:34:21.690Z,33.9
2017-06-19T14:44:36.392Z,33.5
2017-06-19T14:54:51.478Z,33.1
2017-06-19T15:05:05.562Z,33.1
2017-06-19T15:15:20.239Z,33.6
2017-06-19T15:25:34.817Z,33.8
2017-06-19T15:35:50.115Z,32.5
2017-06-19T15:46:06.086Z,32.3
2017-06-19T15:56:21.279Z,32.7
2017-06-19T16:06:36.026Z,32.9
2017-06-19T16:16:50.473Z,32
2017-06-19T16:27:04.653Z,32.2
2017-06-19T16:37:19.029Z,33.1
2017-06-19T16:47:34.913Z,33.3
2017-06-19T16:57:50.255Z,32.9
2017-06-19T17:08:05.197Z,32.8
2017-06-19T17:18:19.184Z,32.4
2017-06-19T17:28:34.593Z,32.2
2017-06-19T17:38:48.740Z,32
2017-06-19T17:49:02.986Z,31.7
2017-06-19T17:59:18.633Z,30.3
2017-06-19T18:09:32.934Z,28.6
2017-06-19T18:19:47.361Z,27.1
2017-06-19T18:30:01.597Z,26.4
2017-06-19T18:40:16.902Z,25.9
2017-06-19T18:50:32.468Z,25.4
2017-06-19T19:00:46.650Z,24.9
2017-06-19T19:11:02.338Z,24.7
2017-06-19T19:21:17.208Z,24.5
2017-06-19T19:31:31.517Z,24.2
2017-06-19T19:41:45.461Z,23.7
2017-06-19T19:52:01.053Z,23.2
2017-06-19T20:02:16.141Z,22.8
2017-06-19T20:12:31.087Z,22.8
2017-06-19T20:22:46.860Z,22
2017-06-19T20:33:02.041Z,21.3
2017-06-19T20:43:16.766Z,20.9
2017-06-19T20:53:31.087Z,20.6
2017-06-19T21:03:45.936Z,20.4
2017-06-19T21:14:00.909Z,20.1
2017-06-19T21:24:15.382Z,20
2017-06-19T21:34:30.658Z,20
2017-06-19T21:44:44.594Z,19.9
2017-06-19T21:54:58.500Z,19.1
2017-06-19T22:05:12.515Z,18.6
2017-06-19T22:15:27.375Z,18.9
2017-06-19T22:25:42.170Z,19
2017-06-19T22:35:57.046Z,18.4
2017-06-19T22:46:12.791Z,18.4
2017-06-19T22:56:27.461Z,18.3
2017-06-19T23:06:43.103Z,18.3
2017-06-19T23:16:58.639Z,18.5
2017-06-19T23:27:13.818Z,18.7
2017-06-19T23:37:28.792Z,18.1
2017-06-19T23:47:44.173Z,17.9
2017-06-19T23:57:58.685Z,18.2
